Time;durP1;ratioP1;P1;durP2;ratioP2;P2;SDS_P1;SDS_P2;PMS_P1;PMS_P2;Temp;Humidity;BMP_temperature;BMP_pressure;BME280_temperature;BME280_humidity;BME280_pressure;Samples;Min_cycle;Max_cycle;Signal;HPM_P1;HPM_P2
2022/01/05 00:00:49;;;;;;;1.10;1.00;;;3.80;99.90;;;;;;5090726;28;20238;-72
2022/01/05 00:03:16;;;;;;;1.42;0.95;;;3.80;99.90;;;;;;5089424;28;20239;-72
2022/01/05 00:05:43;;;;;;;1.10;0.95;;;3.80;99.90;;;;;;5090813;28;20203;-72
2022/01/05 00:08:12;;;;;;;1.17;0.80;;;3.80;99.90;;;;;;5090464;28;20642;-73
2022/01/05 00:10:39;;;;;;;1.00;0.90;;;3.80;99.90;;;;;;5090176;28;20211;-73
2022/01/05 00:13:06;;;;;;;1.25;1.10;;;3.80;99.90;;;;;;5089333;28;20204;-72
2022/01/05 00:15:34;;;;;;;2.55;1.02;;;3.80;99.90;;;;;;5090815;28;20210;-72
2022/01/05 00:18:00;;;;;;;1.02;0.90;;;3.80;99.90;;;;;;5093143;28;20210;-72
2022/01/05 00:20:27;;;;;;;1.00;0.90;;;3.80;99.90;;;;;;5094027;28;20698;-72
2022/01/05 00:22:54;;;;;;;0.80;0.80;;;3.70;99.90;;;;;;5094029;28;20578;-72
2022/01/05 00:25:21;;;;;;;3.50;1.10;;;3.70;99.90;;;;;;5095340;28;20210;-72
2022/01/05 00:27:47;;;;;;;0.80;0.77;;;3.70;99.90;;;;;;5094347;28;20203;-73
2022/01/05 00:30:14;;;;;;;1.00;0.90;;;3.70;99.90;;;;;;5094278;28;20215;-72
2022/01/05 00:32:42;;;;;;;2.90;1.45;;;3.80;99.90;;;;;;5093992;28;20207;-72
2022/01/05 00:35:10;;;;;;;1.05;0.95;;;3.70;99.90;;;;;;5093776;28;20216;-72
2022/01/05 00:37:37;;;;;;;1.15;1.00;;;3.70;99.90;;;;;;5094478;28;20195;-72
2022/01/05 00:40:04;;;;;;;1.17;1.00;;;3.70;99.90;;;;;;5094015;28;20204;-72
2022/01/05 00:42:31;;;;;;;1.10;0.90;;;3.70;99.90;;;;;;5093418;28;20195;-72
2022/01/05 00:44:58;;;;;;;1.10;1.00;;;3.70;99.90;;;;;;5094116;28;20220;-72
2022/01/05 00:47:24;;;;;;;1.00;0.85;;;3.70;99.90;;;;;;5093956;28;20203;-72
2022/01/05 00:49:52;;;;;;;0.90;0.80;;;3.70;99.90;;;;;;5093997;28;20211;-72
2022/01/05 00:52:19;;;;;;;1.92;0.82;;;3.70;99.90;;;;;;5093525;28;20200;-72
2022/01/05 00:54:46;;;;;;;1.27;0.90;;;3.70;99.90;;;;;;5093724;28;20576;-72
2022/01/05 00:57:13;;;;;;;1.02;0.80;;;3.70;99.90;;;;;;5093246;28;20322;-72
2022/01/05 00:59:40;;;;;;;1.05;0.90;;;3.70;99.90;;;;;;5094136;28;20207;-72
2022/01/05 01:02:07;;;;;;;1.10;0.90;;;3.70;99.90;;;;;;5093335;28;20219;-72
2022/01/05 01:04:33;;;;;;;1.38;0.85;;;3.70;99.90;;;;;;5092921;28;20253;-72
2022/01/05 01:07:01;;;;;;;0.93;0.80;;;3.70;99.90;;;;;;5094041;28;20207;-72
2022/01/05 01:09:28;;;;;;;1.23;0.80;;;3.70;99.90;;;;;;5094009;28;20195;-72
2022/01/05 01:11:55;;;;;;;1.05;0.88;;;3.70;99.90;;;;;;5093282;28;20196;-72
2022/01/05 01:14:22;;;;;;;0.80;0.70;;;3.70;99.90;;;;;;5093329;28;20231;-72
2022/01/05 01:16:48;;;;;;;1.08;0.80;;;3.70;99.90;;;;;;5093935;28;20305;-72
2022/01/05 01:19:15;;;;;;;0.98;0.80;;;3.80;99.90;;;;;;5092388;28;20199;-72
2022/01/05 01:21:42;;;;;;;0.88;0.80;;;3.80;99.90;;;;;;5093249;28;20230;-72
2022/01/05 01:24:10;;;;;;;0.80;0.70;;;3.80;99.90;;;;;;5093009;28;20220;-72
2022/01/05 01:26:36;;;;;;;1.25;0.93;;;3.80;99.90;;;;;;5093814;28;20207;-72
2022/01/05 01:29:03;;;;;;;1.10;0.70;;;3.80;99.90;;;;;;5091773;28;20215;-72
2022/01/05 01:31:30;;;;;;;0.90;0.80;;;3.90;99.90;;;;;;5093335;28;20210;-72
2022/01/05 01:33:57;;;;;;;0.80;0.70;;;3.80;99.90;;;;;;5092318;28;20597;-72
2022/01/05 01:36:24;;;;;;;0.95;0.80;;;3.90;99.90;;;;;;5101814;28;20200;-72
2022/01/05 01:38:51;;;;;;;2.35;0.80;;;3.90;99.90;;;;;;5093491;28;20670;-72
2022/01/05 01:41:19;;;;;;;0.80;0.70;;;3.90;99.90;;;;;;5093581;28;20685;-72
2022/01/05 01:43:46;;;;;;;0.80;0.70;;;3.90;99.90;;;;;;5093388;28;20683;-72
2022/01/05 01:46:13;;;;;;;0.90;0.80;;;4.00;99.90;;;;;;5093052;28;20582;-72
2022/01/05 01:48:40;;;;;;;1.30;0.77;;;4.00;99.90;;;;;;5092130;28;20200;-72
2022/01/05 01:51:06;;;;;;;1.00;0.90;;;4.00;99.90;;;;;;5092369;28;20678;-72
2022/01/05 01:53:33;;;;;;;0.85;0.75;;;4.00;99.90;;;;;;5092982;28;20227;-72
2022/01/05 01:56:03;;;;;;;0.80;0.70;;;4.00;99.90;;;;;;5092914;28;20697;-72
2022/01/05 01:58:34;;;;;;;1.00;0.80;;;4.00;99.90;;;;;;5092706;28;20199;-72
2022/01/05 02:01:01;;;;;;;1.33;0.70;;;4.00;99.90;;;;;;5092626;28;20210;-72
2022/01/05 02:03:28;;;;;;;1.50;1.00;;;4.10;99.90;;;;;;5091674;28;20219;-73
2022/01/05 02:05:55;;;;;;;0.80;0.70;;;4.10;99.90;;;;;;5092825;28;20200;-72
2022/01/05 02:08:22;;;;;;;1.00;0.90;;;4.10;99.90;;;;;;5092817;28;20199;-72
2022/01/05 02:10:49;;;;;;;0.90;0.80;;;4.10;99.90;;;;;;5092157;28;20207;-72
2022/01/05 02:13:16;;;;;;;1.58;0.90;;;4.10;99.90;;;;;;5091454;28;20593;-72
2022/01/05 02:15:44;;;;;;;1.00;0.88;;;4.10;99.90;;;;;;5092473;28;20203;-72
2022/01/05 02:18:57;;;;;;;1.15;1.05;;;4.10;99.90;;;;;;5092201;28;20196;-72
2022/01/05 02:21:05;;;;;;;0.90;0.80;;;4.20;99.90;;;;;;5091880;28;20295;-72
2022/01/05 02:23:31;;;;;;;0.90;0.80;;;4.20;99.90;;;;;;5092417;28;20248;-72
2022/01/05 02:28:25;;;;;;;0.80;0.70;;;4.20;99.90;;;;;;5080417;22;20239;-92
2022/01/05 02:30:53;;;;;;;0.90;0.80;;;4.30;99.90;;;;;;5072706;28;20231;-91
2022/01/05 02:33:20;;;;;;;1.23;1.13;;;4.30;99.90;;;;;;5066051;28;20201;-93
2022/01/05 02:35:47;;;;;;;0.82;0.80;;;4.20;99.90;;;;;;5069166;28;20225;-94
2022/01/05 02:38:18;;;;;;;1.95;1.10;;;4.20;99.90;;;;;;5068157;28;20201;-93
2022/01/05 02:40:45;;;;;;;1.10;0.88;;;4.20;99.90;;;;;;5069034;28;20219;-93
2022/01/05 02:43:12;;;;;;;1.70;1.00;;;4.20;99.90;;;;;;5068251;28;20219;-93
2022/01/05 02:45:39;;;;;;;1.02;0.90;;;4.20;99.90;;;;;;5068261;28;20231;-94
2022/01/05 02:48:06;;;;;;;1.30;1.00;;;4.30;99.90;;;;;;5068787;28;20219;-93
2022/01/05 02:50:33;;;;;;;0.80;0.80;;;4.30;99.90;;;;;;5072064;28;20225;-93
2022/01/05 02:53:00;;;;;;;1.00;0.80;;;4.40;99.90;;;;;;5076356;28;20264;-93
2022/01/05 02:55:28;;;;;;;1.25;1.15;;;4.40;99.90;;;;;;5077672;28;20451;-94
2022/01/05 02:57:55;;;;;;;1.10;1.00;;;4.40;99.90;;;;;;5075913;28;20201;-93
2022/01/05 03:00:22;;;;;;;0.93;0.82;;;4.40;99.90;;;;;;5075367;28;20303;-93
2022/01/05 03:02:49;;;;;;;2.17;0.90;;;4.40;99.90;;;;;;5076046;28;20248;-93
2022/01/05 03:05:16;;;;;;;1.30;0.90;;;4.40;99.90;;;;;;5078029;28;20231;-96
2022/01/05 03:07:43;;;;;;;1.10;0.90;;;4.40;99.90;;;;;;5078529;28;20231;-93
2022/01/05 03:10:13;;;;;;;0.90;0.80;;;4.40;99.90;;;;;;5067155;22;20224;-71
2022/01/05 03:12:43;;;;;;;1.00;0.90;;;4.40;99.90;;;;;;5049993;28;20665;-71
2022/01/05 03:15:10;;;;;;;0.90;0.80;;;4.30;99.90;;;;;;5050993;28;20217;-72
2022/01/05 03:17:37;;;;;;;2.22;1.00;;;4.30;99.90;;;;;;5050749;28;20202;-71
2022/01/05 03:20:05;;;;;;;1.33;0.93;;;4.20;99.90;;;;;;5075104;22;20205;-93
2022/01/05 03:22:32;;;;;;;0.93;0.80;;;4.20;99.90;;;;;;5044229;28;20200;-92
2022/01/05 03:24:59;;;;;;;1.10;0.82;;;4.20;99.90;;;;;;5052808;28;20228;-92
2022/01/05 03:27:26;;;;;;;2.45;0.95;;;4.20;99.90;;;;;;5053162;28;20698;-92
2022/01/05 03:29:55;;;;;;;0.80;0.70;;;4.10;99.90;;;;;;5053143;28;20197;-92
2022/01/05 03:32:24;;;;;;;2.15;0.80;;;4.10;99.90;;;;;;5052753;28;20209;-92
2022/01/05 03:34:52;;;;;;;3.42;1.05;;;4.10;99.90;;;;;;5052667;28;20205;-92
2022/01/05 03:37:19;;;;;;;1.70;0.80;;;4.10;99.90;;;;;;5052969;28;20205;-92
2022/01/05 03:39:46;;;;;;;0.90;0.80;;;4.20;99.90;;;;;;5053229;28;20209;-92
2022/01/05 03:42:12;;;;;;;0.90;0.80;;;4.10;99.90;;;;;;5053733;28;20215;-92
2022/01/05 03:44:40;;;;;;;0.90;0.70;;;4.10;99.90;;;;;;5052995;28;20217;-92
2022/01/05 03:47:08;;;;;;;1.00;0.90;;;4.20;99.90;;;;;;5052702;28;20215;-92
2022/01/05 03:49:36;;;;;;;0.82;0.77;;;4.20;99.90;;;;;;5052601;28;20650;-92
2022/01/05 03:52:04;;;;;;;0.80;0.70;;;4.10;99.90;;;;;;5052214;28;20551;-92
2022/01/05 03:54:31;;;;;;;1.08;0.80;;;4.10;99.90;;;;;;5052384;28;20292;-93
2022/01/05 03:56:59;;;;;;;0.80;0.80;;;4.10;99.90;;;;;;5052574;28;20211;-93
2022/01/05 03:59:27;;;;;;;0.80;0.70;;;4.10;99.90;;;;;;5052537;28;20216;-91
2022/01/05 04:01:54;;;;;;;0.80;0.70;;;4.10;99.90;;;;;;5052014;28;20309;-92
2022/01/05 04:04:23;;;;;;;0.77;0.68;;;4.10;99.90;;;;;;5051370;28;20221;-92
2022/01/05 04:06:50;;;;;;;0.80;0.70;;;4.10;99.90;;;;;;5051960;28;20680;-92
2022/01/05 04:09:17;;;;;;;0.85;0.75;;;4.10;99.90;;;;;;5052556;28;20201;-92
2022/01/05 04:11:44;;;;;;;0.90;0.70;;;4.10;99.90;;;;;;5052359;28;20232;-92
2022/01/05 04:14:12;;;;;;;1.00;0.80;;;4.10;99.90;;;;;;5053554;28;20307;-92
2022/01/05 04:16:39;;;;;;;1.00;0.70;;;4.10;99.90;;;;;;5052017;28;20205;-92
2022/01/05 04:19:06;;;;;;;0.88;0.70;;;4.10;99.90;;;;;;5052379;28;20207;-92
2022/01/05 04:21:34;;;;;;;0.90;0.70;;;4.10;99.90;;;;;;5051577;28;20243;-92
2022/01/05 04:24:02;;;;;;;0.80;0.70;;;4.10;99.90;;;;;;5052264;28;20612;-93
2022/01/05 04:26:29;;;;;;;0.80;0.70;;;4.10;99.90;;;;;;5052134;28;20278;-92
2022/01/05 04:28:56;;;;;;;0.98;0.80;;;4.10;99.90;;;;;;5052051;28;20213;-92
2022/01/05 04:31:23;;;;;;;0.80;0.70;;;4.00;99.90;;;;;;5052449;28;20225;-90
2022/01/05 04:33:50;;;;;;;0.93;0.70;;;4.00;99.90;;;;;;5051817;28;20215;-91
2022/01/05 04:36:17;;;;;;;0.98;0.70;;;4.00;99.90;;;;;;5022150;28;20202;-91
2022/01/05 04:38:46;;;;;;;0.80;0.80;;;4.10;99.90;;;;;;5026892;28;20208;-89
2022/01/05 04:41:13;;;;;;;0.80;0.70;;;4.10;99.90;;;;;;5025158;28;20738;-91
2022/01/05 04:43:40;;;;;;;0.73;0.68;;;4.00;99.90;;;;;;5032107;28;20206;-92
2022/01/05 04:46:07;;;;;;;0.88;0.80;;;4.00;99.90;;;;;;5032450;28;20222;-92
2022/01/05 04:48:41;;;;;;;0.80;0.70;;;3.90;99.90;;;;;;5033012;28;20221;-92
2022/01/05 04:51:09;;;;;;;0.80;0.80;;;3.90;99.90;;;;;;5032993;28;20229;-92
2022/01/05 04:53:36;;;;;;;2.08;0.93;;;3.90;99.90;;;;;;5033186;28;20209;-92
2022/01/05 04:59:56;;;;;;;2.28;0.80;;;3.80;99.90;;;;;;4933414;29;20296;-92
2022/01/05 05:02:23;;;;;;;2.45;0.90;;;3.90;99.90;;;;;;5008773;28;20201;-92
2022/01/05 05:04:49;;;;;;;0.80;0.70;;;3.90;99.90;;;;;;5025164;28;20218;-91
2022/01/05 05:07:16;;;;;;;0.98;0.80;;;3.80;99.90;;;;;;5023663;28;20232;-92
2022/01/05 05:09:46;;;;;;;0.90;0.80;;;3.80;99.90;;;;;;5019252;28;20210;-93
2022/01/05 05:12:19;;;;;;;0.77;0.70;;;3.80;99.90;;;;;;5016607;28;20385;-93
2022/01/05 05:14:46;;;;;;;0.80;0.75;;;3.80;99.90;;;;;;5018263;28;20209;-92
2022/01/05 05:17:15;;;;;;;1.13;0.88;;;3.70;99.90;;;;;;5025244;28;20203;-93
2022/01/05 05:22:18;;;;;;;1.10;1.00;;;3.80;99.90;;;;;;5057967;23;20235;-72
2022/01/05 05:24:45;;;;;;;1.00;0.88;;;3.80;99.90;;;;;;5052563;28;20236;-72
2022/01/05 05:27:12;;;;;;;1.00;0.90;;;3.90;99.90;;;;;;5052739;28;20228;-72
2022/01/05 05:29:38;;;;;;;1.10;1.00;;;4.00;99.90;;;;;;5052213;28;20201;-72
2022/01/05 05:32:06;;;;;;;1.17;0.95;;;4.00;99.90;;;;;;5052453;28;20686;-72
2022/01/05 05:34:34;;;;;;;1.10;1.00;;;4.10;99.90;;;;;;5051475;28;20225;-71
2022/01/05 05:37:01;;;;;;;1.27;1.00;;;4.10;99.90;;;;;;5052646;28;20230;-71
2022/01/05 05:39:28;;;;;;;1.00;0.80;;;4.10;99.90;;;;;;5051867;28;20201;-71
2022/01/05 05:41:55;;;;;;;0.80;0.80;;;3.90;99.90;;;;;;5052356;28;20204;-71
2022/01/05 05:44:22;;;;;;;1.60;1.10;;;3.60;99.90;;;;;;5051538;28;20217;-71
2022/01/05 05:46:48;;;;;;;1.65;0.85;;;3.40;99.90;;;;;;5052624;28;20232;-71
2022/01/05 05:49:15;;;;;;;1.73;0.90;;;3.20;99.90;;;;;;5051146;28;20240;-71
2022/01/05 05:51:43;;;;;;;2.25;0.98;;;2.90;99.90;;;;;;5051996;28;20208;-71
2022/01/05 05:54:10;;;;;;;0.80;0.80;;;2.80;99.90;;;;;;5052170;28;20224;-71
2022/01/05 05:56:37;;;;;;;1.27;1.17;;;2.70;99.90;;;;;;5052038;28;20201;-71
2022/01/05 05:59:04;;;;;;;1.42;0.93;;;2.50;99.90;;;;;;5052519;28;20201;-71
2022/01/05 06:01:31;;;;;;;0.90;0.80;;;2.40;99.90;;;;;;5051593;28;20212;-71
2022/01/05 06:03:57;;;;;;;1.52;0.90;;;2.30;99.90;;;;;;5051797;28;20217;-71
2022/01/05 06:06:24;;;;;;;1.55;1.10;;;2.30;99.90;;;;;;5052096;28;20248;-71
2022/01/05 06:08:52;;;;;;;1.05;0.95;;;2.20;99.90;;;;;;5051992;28;20571;-71
2022/01/05 06:11:19;;;;;;;1.08;0.98;;;2.20;99.90;;;;;;5051775;28;20204;-71
2022/01/05 06:13:46;;;;;;;1.35;1.02;;;2.20;99.90;;;;;;5051563;28;20221;-71
2022/01/05 06:16:12;;;;;;;1.85;0.90;;;2.20;99.90;;;;;;5052245;28;20201;-72
2022/01/05 06:18:39;;;;;;;1.05;0.90;;;2.20;99.90;;;;;;5050822;28;20292;-71
2022/01/05 06:21:06;;;;;;;1.10;1.00;;;2.20;99.90;;;;;;5051678;28;20245;-71
2022/01/05 06:23:32;;;;;;;1.40;1.00;;;2.30;99.90;;;;;;5051719;28;20584;-71
2022/01/05 06:26:01;;;;;;;1.10;0.90;;;2.30;99.90;;;;;;5051154;28;20228;-71
2022/01/05 06:28:27;;;;;;;1.00;0.90;;;2.30;99.90;;;;;;5051486;28;20204;-70
2022/01/05 06:30:54;;;;;;;1.05;0.95;;;2.20;99.90;;;;;;5051501;28;20201;-71
2022/01/05 06:33:21;;;;;;;3.45;1.38;;;2.20;99.90;;;;;;5050542;28;20228;-70
2022/01/05 06:35:48;;;;;;;1.70;1.40;;;2.30;99.90;;;;;;5052060;28;20197;-71
2022/01/05 06:38:14;;;;;;;1.95;1.35;;;2.40;99.90;;;;;;5051723;28;20200;-71
2022/01/05 06:40:41;;;;;;;2.55;1.23;;;2.30;99.90;;;;;;5051515;28;20196;-70
2022/01/05 06:43:09;;;;;;;1.30;1.17;;;2.30;99.90;;;;;;5050725;28;20209;-71
2022/01/05 06:45:36;;;;;;;2.63;1.23;;;2.20;99.90;;;;;;5051456;28;20719;-71
2022/01/05 06:48:03;;;;;;;1.58;1.30;;;2.20;99.90;;;;;;5051357;28;20211;-71
2022/01/05 06:50:30;;;;;;;1.67;1.38;;;2.20;99.90;;;;;;5050734;28;20201;-71
2022/01/05 06:52:57;;;;;;;2.10;1.60;;;2.20;99.90;;;;;;5050975;28;20197;-71
2022/01/05 06:55:24;;;;;;;1.90;1.40;;;2.30;99.90;;;;;;5051149;28;20293;-71
2022/01/05 06:57:51;;;;;;;2.85;1.50;;;2.20;99.90;;;;;;5051046;28;20583;-71
2022/01/05 07:00:21;;;;;;;2.13;1.55;;;2.20;99.90;;;;;;5051887;28;20200;-71
2022/01/05 07:02:48;;;;;;;2.05;1.10;;;2.20;99.90;;;;;;5050752;28;20228;-71
2022/01/05 07:05:15;;;;;;;1.60;1.50;;;2.20;99.90;;;;;;5050462;28;20225;-71
2022/01/05 07:07:41;;;;;;;1.42;1.10;;;2.30;99.90;;;;;;5051428;28;20205;-70
2022/01/05 07:10:10;;;;;;;2.42;1.60;;;2.30;99.90;;;;;;5050976;28;20205;-71
2022/01/05 07:12:38;;;;;;;1.52;1.42;;;2.30;99.90;;;;;;5050708;28;20203;-71
2022/01/05 07:15:06;;;;;;;1.63;1.10;;;2.30;99.90;;;;;;5051044;28;20225;-71
2022/01/05 07:17:35;;;;;;;1.65;1.38;;;2.30;99.90;;;;;;5051139;28;20204;-71
2022/01/05 07:20:02;;;;;;;2.67;1.25;;;2.30;99.90;;;;;;5050120;28;20224;-69
2022/01/05 07:22:29;;;;;;;1.20;1.10;;;2.30;99.90;;;;;;5047149;28;20212;-71
2022/01/05 07:24:56;;;;;;;1.30;1.20;;;2.30;99.90;;;;;;5047712;28;20228;-71
2022/01/05 07:27:23;;;;;;;2.17;1.35;;;2.30;99.90;;;;;;5049260;28;20197;-71
2022/01/05 07:29:50;;;;;;;1.23;1.13;;;2.40;99.90;;;;;;5051070;28;20204;-71
2022/01/05 07:32:16;;;;;;;2.85;1.30;;;2.40;99.90;;;;;;5050015;28;20201;-71
2022/01/05 07:34:44;;;;;;;1.98;1.25;;;2.40;99.90;;;;;;5050630;28;20217;-71
2022/01/05 07:37:11;;;;;;;2.00;1.30;;;2.30;99.90;;;;;;5050690;28;20208;-70
2022/01/05 07:39:38;;;;;;;1.60;1.30;;;2.30;99.90;;;;;;5050353;28;20691;-71
2022/01/05 07:42:06;;;;;;;1.60;1.50;;;2.20;99.90;;;;;;5050333;28;20683;-70
2022/01/05 07:44:33;;;;;;;2.22;1.67;;;2.20;99.90;;;;;;5049853;28;20267;-70
2022/01/05 07:46:59;;;;;;;2.72;1.60;;;2.10;99.90;;;;;;5050704;28;20220;-70
2022/01/05 07:49:26;;;;;;;2.65;1.65;;;2.10;99.90;;;;;;5049874;28;20197;-71
2022/01/05 07:51:54;;;;;;;2.00;1.50;;;2.00;99.90;;;;;;5050318;28;20673;-71
2022/01/05 07:54:21;;;;;;;2.28;2.00;;;2.00;99.90;;;;;;5049890;28;20228;-71
2022/01/05 07:56:48;;;;;;;3.83;1.90;;;2.00;99.90;;;;;;5050633;28;20205;-70
2022/01/05 07:59:14;;;;;;;6.60;2.33;;;2.00;99.90;;;;;;5049778;28;20573;-71
2022/01/05 08:01:41;;;;;;;5.50;2.58;;;2.00;99.90;;;;;;5050016;28;20209;-70
2022/01/05 08:04:08;;;;;;;3.92;2.58;;;2.00;99.90;;;;;;5049702;28;20590;-71
2022/01/05 08:06:34;;;;;;;3.22;2.38;;;2.00;99.90;;;;;;5050222;28;20231;-70
2022/01/05 08:09:02;;;;;;;2.83;2.28;;;2.00;99.90;;;;;;5049920;28;20212;-70
2022/01/05 08:11:29;;;;;;;4.05;2.00;;;2.00;99.90;;;;;;5049974;28;20292;-71
2022/01/05 08:13:56;;;;;;;2.72;2.53;;;1.90;99.90;;;;;;5049800;28;20220;-71
2022/01/05 08:16:23;;;;;;;3.20;2.30;;;1.90;99.90;;;;;;5050157;28;20204;-70
2022/01/05 08:18:50;;;;;;;6.60;2.47;;;1.90;99.90;;;;;;5049245;28;20197;-70
2022/01/05 08:21:17;;;;;;;3.45;2.47;;;1.90;99.90;;;;;;5049617;28;20217;-70
2022/01/05 08:23:44;;;;;;;3.70;2.63;;;1.90;99.90;;;;;;5050136;28;20320;-71
2022/01/05 08:26:12;;;;;;;4.75;3.08;;;2.00;99.90;;;;;;5049979;28;20216;-71
2022/01/05 08:28:39;;;;;;;3.25;2.67;;;2.10;99.90;;;;;;5049692;28;20208;-71
2022/01/05 08:31:06;;;;;;;5.65;2.58;;;2.20;99.90;;;;;;5049716;28;20201;-70
2022/01/05 08:33:34;;;;;;;4.68;3.33;;;2.20;99.90;;;;;;5049295;28;20636;-70
2022/01/05 08:36:01;;;;;;;4.85;2.67;;;2.30;99.90;;;;;;5050330;28;20577;-71
2022/01/05 08:38:28;;;;;;;3.50;2.63;;;2.30;99.90;;;;;;5051919;28;20205;-71
2022/01/05 08:40:55;;;;;;;3.22;2.35;;;2.20;99.90;;;;;;5053423;28;20197;-69
2022/01/05 08:43:23;;;;;;;3.33;2.13;;;2.20;99.90;;;;;;5053430;28;20225;-71
2022/01/05 08:45:50;;;;;;;4.45;3.13;;;2.30;99.90;;;;;;5054514;28;20221;-71
2022/01/05 08:48:17;;;;;;;3.40;2.30;;;2.20;99.90;;;;;;5053202;28;20204;-70
2022/01/05 08:50:44;;;;;;;4.35;2.50;;;2.20;99.90;;;;;;5054022;28;20205;-70
2022/01/05 08:53:11;;;;;;;3.63;2.85;;;2.20;99.90;;;;;;5053356;28;20205;-70
2022/01/05 08:55:40;;;;;;;2.60;2.10;;;2.10;99.90;;;;;;5053361;28;20556;-71
2022/01/05 08:58:08;;;;;;;2.47;2.08;;;2.00;99.90;;;;;;5053223;28;20215;-71
2022/01/05 09:00:37;;;;;;;4.38;2.45;;;2.10;99.90;;;;;;5053844;28;20232;-71
2022/01/05 09:03:05;;;;;;;5.90;2.20;;;2.20;99.90;;;;;;5053173;28;20201;-71
2022/01/05 09:05:32;;;;;;;5.10;2.00;;;2.30;99.90;;;;;;5052883;28;20204;-70
2022/01/05 09:07:59;;;;;;;4.50;2.10;;;2.30;99.90;;;;;;5053630;28;20201;-71
2022/01/05 09:10:26;;;;;;;3.97;2.50;;;2.40;99.90;;;;;;5051153;28;20216;-70
2022/01/05 09:12:53;;;;;;;3.38;2.00;;;2.40;99.90;;;;;;5052650;28;20201;-71
2022/01/05 09:15:20;;;;;;;3.63;2.00;;;2.40;99.90;;;;;;5053113;28;20220;-71
2022/01/05 09:17:48;;;;;;;5.18;2.25;;;2.40;99.90;;;;;;5053244;28;20198;-71
2022/01/05 09:22:51;;;;;;;3.13;2.08;;;2.60;99.90;;;;;;5050910;28;20242;-92
2022/01/05 09:25:19;;;;;;;4.25;2.15;;;2.70;99.90;;;;;;5066282;28;20210;-91
2022/01/05 09:27:47;;;;;;;2.28;1.98;;;3.10;99.90;;;;;;5065881;28;20228;-91
2022/01/05 09:30:17;;;;;;;3.40;1.95;;;3.60;99.90;;;;;;5068602;28;20318;-91
2022/01/05 09:33:04;;;;;;;4.35;2.10;;;3.80;99.90;;;;;;5068135;28;20224;-92
2022/01/05 09:35:35;;;;;;;6.07;2.80;;;4.10;99.90;;;;;;5075835;28;20212;-92
2022/01/05 09:38:21;;;;;;;4.45;1.83;;;4.50;99.90;;;;;;5063592;22;20716;-70
2022/01/05 09:43:48;;;;;;;3.17;1.77;;;6.20;99.90;;;;;;5011359;28;20224;-70
2022/01/05 09:46:30;;;;;;;2.75;1.95;;;8.10;99.90;;;;;;5052677;28;20255;-70
2022/01/05 09:49:03;;;;;;;2.92;1.95;;;9.60;99.90;;;;;;5051461;28;20205;-70
2022/01/05 09:51:32;;;;;;;4.50;1.75;;;11.10;96.00;;;;;;5051425;28;20197;-70
2022/01/05 09:54:02;;;;;;;3.72;2.20;;;11.80;95.00;;;;;;5051857;28;20228;-70
2022/01/05 09:56:31;;;;;;;3.45;1.77;;;12.20;96.30;;;;;;5052411;28;20243;-69
2022/01/05 09:59:00;;;;;;;3.00;1.85;;;12.80;95.10;;;;;;5051816;28;20263;-70
2022/01/05 10:01:28;;;;;;;3.70;1.88;;;12.60;94.40;;;;;;5051775;28;20343;-71
2022/01/05 10:03:55;;;;;;;3.60;1.92;;;12.80;95.20;;;;;;5051291;28;20320;-71
2022/01/05 10:06:22;;;;;;;3.80;1.73;;;12.60;94.10;;;;;;5052047;28;20232;-71
2022/01/05 10:08:50;;;;;;;2.88;1.80;;;11.30;93.40;;;;;;5051575;28;20209;-71
2022/01/05 10:11:17;;;;;;;3.67;1.73;;;9.40;95.70;;;;;;5051870;28;20581;-71
2022/01/05 10:13:44;;;;;;;5.80;1.80;;;7.80;97.10;;;;;;5051668;28;20229;-71
2022/01/05 10:16:11;;;;;;;3.75;1.95;;;6.60;99.30;;;;;;5050481;28;20228;-71
2022/01/05 10:18:43;;;;;;;4.72;1.85;;;6.00;99.90;;;;;;5050250;28;20213;-70
2022/01/05 10:21:12;;;;;;;3.58;2.20;;;5.50;99.90;;;;;;5051806;28;20611;-71
2022/01/05 10:23:41;;;;;;;5.63;2.10;;;5.00;99.90;;;;;;5051548;28;20287;-70
2022/01/05 10:26:26;;;;;;;2.58;1.65;;;4.50;99.70;;;;;;5052497;28;20247;-71
2022/01/05 10:28:54;;;;;;;3.35;2.10;;;3.90;99.90;;;;;;5052238;28;20229;-71
2022/01/05 10:31:24;;;;;;;2.70;2.03;;;3.70;99.90;;;;;;5051597;28;20205;-70
2022/01/05 10:33:51;;;;;;;2.85;1.88;;;3.70;99.90;;;;;;5051183;28;20312;-71
2022/01/05 10:36:18;;;;;;;4.18;1.90;;;4.10;99.90;;;;;;5052262;28;20198;-70
2022/01/05 10:38:53;;;;;;;4.28;2.33;;;4.50;99.90;;;;;;5051381;28;20209;-70
2022/01/05 10:41:24;;;;;;;3.72;1.60;;;6.10;99.90;;;;;;5050452;28;20204;-71
2022/01/05 10:44:24;;;;;;;3.72;2.00;;;9.00;99.30;;;;;;5052082;28;20248;-71
2022/01/05 10:46:53;;;;;;;4.00;1.85;;;11.40;95.60;;;;;;4990012;28;20718;-70
2022/01/05 10:49:29;;;;;;;5.72;2.42;;;12.50;94.30;;;;;;4989489;28;20203;-69
2022/01/05 10:51:57;;;;;;;3.08;1.70;;;13.30;92.70;;;;;;5022133;28;20206;-69
2022/01/05 10:54:25;;;;;;;4.82;1.85;;;13.30;92.80;;;;;;5051236;28;20227;-69
2022/01/05 10:57:06;;;;;;;4.15;2.40;;;13.90;92.50;;;;;;5051089;28;20205;-70
2022/01/05 10:59:37;;;;;;;5.07;2.53;;;14.70;91.60;;;;;;5051678;28;20239;-70
2022/01/05 11:02:28;;;;;;;4.25;1.95;;;15.30;90.70;;;;;;5050565;28;20212;-70
2022/01/05 11:04:58;;;;;;;2.80;1.53;;;15.60;89.70;;;;;;5050759;28;20228;-70
2022/01/05 11:07:26;;;;;;;2.93;1.80;;;15.70;88.40;;;;;;5051201;28;21024;-70
2022/01/05 11:09:55;;;;;;;4.53;2.03;;;14.50;87.50;;;;;;5051190;28;20463;-69
2022/01/05 11:12:33;;;;;;;4.70;1.98;;;12.90;88.90;;;;;;5050667;28;20470;-69
2022/01/05 11:15:23;;;;;;;7.93;2.53;;;11.70;91.00;;;;;;5050374;28;20230;-69
2022/01/05 11:18:11;;;;;;;5.95;2.28;;;10.40;93.60;;;;;;5051387;28;20193;-69
2022/01/05 11:20:39;;;;;;;3.92;1.90;;;10.00;93.70;;;;;;5050881;28;20924;-69
2022/01/05 11:23:07;;;;;;;4.50;1.90;;;10.10;92.50;;;;;;5050455;28;20687;-69
2022/01/05 11:25:37;;;;;;;3.22;1.85;;;10.10;92.70;;;;;;5050568;28;20224;-69
2022/01/05 11:28:06;;;;;;;3.40;2.05;;;10.50;92.30;;;;;;5050426;28;20267;-69
2022/01/05 11:30:33;;;;;;;3.08;1.67;;;10.00;92.10;;;;;;5051012;28;20208;-69
2022/01/05 11:33:01;;;;;;;7.78;2.63;;;9.20;93.60;;;;;;5050395;28;20208;-70
2022/01/05 11:35:28;;;;;;;6.03;2.45;;;8.40;95.00;;;;;;5050128;28;20201;-69
2022/01/05 11:37:55;;;;;;;4.55;2.25;;;7.90;96.40;;;;;;5050918;28;20209;-69
2022/01/05 11:40:23;;;;;;;3.25;1.98;;;7.20;95.80;;;;;;5050232;28;20205;-69
2022/01/05 11:42:51;;;;;;;2.88;1.75;;;6.90;96.50;;;;;;5049897;28;20201;-70
2022/01/05 11:45:31;;;;;;;6.20;2.30;;;6.70;96.60;;;;;;5050642;28;20224;-69
2022/01/05 11:48:13;;;;;;;5.15;2.60;;;6.40;96.50;;;;;;5050464;28;20221;-69
2022/01/05 11:50:44;;;;;;;6.35;2.35;;;5.90;97.00;;;;;;5050477;28;20277;-69
2022/01/05 11:53:11;;;;;;;4.53;2.28;;;5.40;97.20;;;;;;5050433;28;20577;-70
2022/01/05 11:56:05;;;;;;;6.80;2.45;;;5.20;97.60;;;;;;5050102;28;20204;-70
2022/01/05 11:58:33;;;;;;;6.22;2.35;;;5.20;98.70;;;;;;5049786;28;20201;-69
2022/01/05 12:01:24;;;;;;;5.45;3.35;;;5.50;99.90;;;;;;5050289;28;20196;-69
2022/01/05 12:04:10;;;;;;;5.32;2.28;;;6.20;97.20;;;;;;5049592;28;20217;-70
2022/01/05 12:07:04;;;;;;;5.30;2.13;;;7.30;97.10;;;;;;5050471;28;20244;-69
2022/01/05 12:09:35;;;;;;;7.25;1.85;;;8.40;95.50;;;;;;5049867;28;20216;-70
2022/01/05 12:12:27;;;;;;;5.63;2.58;;;9.30;95.30;;;;;;5049401;28;20228;-70
2022/01/05 12:14:54;;;;;;;3.97;1.88;;;10.10;93.80;;;;;;5051099;28;20225;-70
2022/01/05 12:17:23;;;;;;;9.50;2.40;;;10.70;92.90;;;;;;5054404;28;20201;-70
2022/01/05 12:20:08;;;;;;;4.43;2.08;;;10.70;92.70;;;;;;5049759;28;20223;-69
2022/01/05 12:22:35;;;;;;;3.80;1.83;;;10.50;92.80;;;;;;5049898;28;20209;-70
2022/01/05 12:25:11;;;;;;;4.70;2.10;;;9.90;93.20;;;;;;5050029;28;20286;-69
2022/01/05 12:27:40;;;;;;;3.97;2.45;;;9.00;93.60;;;;;;5050291;28;20316;-69
2022/01/05 12:30:41;;;;;;;5.70;2.28;;;7.60;94.70;;;;;;5047835;28;20706;-68
2022/01/05 12:33:18;;;;;;;7.68;2.00;;;6.60;95.20;;;;;;5050188;28;20216;-69
2022/01/05 12:35:51;;;;;;;3.97;1.98;;;6.20;96.70;;;;;;5050545;28;20201;-70
2022/01/05 12:38:31;;;;;;;4.15;2.30;;;6.40;96.20;;;;;;5049636;28;20205;-69
2022/01/05 12:40:58;;;;;;;3.67;1.83;;;6.70;95.80;;;;;;5050392;28;20208;-69
2022/01/05 12:43:35;;;;;;;6.68;2.00;;;6.90;95.90;;;;;;5049754;28;20245;-70
2022/01/05 12:46:07;;;;;;;8.00;2.30;;;6.90;96.30;;;;;;5049735;28;20331;-70
2022/01/05 12:48:59;;;;;;;4.30;2.25;;;7.10;95.50;;;;;;5049433;28;20232;-69
2022/01/05 12:51:48;;;;;;;7.25;2.22;;;7.30;95.50;;;;;;5049988;28;20208;-69
2022/01/05 12:54:18;;;;;;;5.13;2.15;;;7.10;95.10;;;;;;5050012;28;20221;-70
2022/01/05 12:56:48;;;;;;;5.20;1.83;;;7.10;94.90;;;;;;5050321;28;20205;-70
2022/01/05 12:59:21;;;;;;;3.47;1.70;;;7.10;95.40;;;;;;5050295;28;20266;-71
2022/01/05 13:01:49;;;;;;;5.75;2.13;;;7.20;95.60;;;;;;5049714;28;20201;-72
2022/01/05 13:04:19;;;;;;;6.53;2.25;;;7.20;95.20;;;;;;5049475;28;20225;-70
2022/01/05 13:06:47;;;;;;;3.38;1.92;;;6.80;95.60;;;;;;5050533;28;20233;-70
2022/01/05 13:09:15;;;;;;;3.20;1.70;;;6.60;96.10;;;;;;5050467;28;20233;-69
2022/01/05 13:11:44;;;;;;;4.85;2.00;;;6.50;96.20;;;;;;5049051;28;20557;-69
2022/01/05 13:14:18;;;;;;;5.22;2.05;;;6.50;96.70;;;;;;5050193;28;20245;-69
2022/01/05 13:16:46;;;;;;;4.30;2.08;;;6.60;96.70;;;;;;5049690;28;20727;-70
2022/01/05 13:19:29;;;;;;;4.47;2.38;;;6.90;96.70;;;;;;5048157;28;20208;-70